createdAt,value
2018-09-11T00:00:04.222Z,10.10
2018-09-11T00:01:04.204Z,9.20
2018-09-11T00:02:04.185Z,9.00
2018-09-11T00:03:04.167Z,8.40
2018-09-11T00:04:04.150Z,9.70
2018-09-11T00:05:04.130Z,9.70
2018-09-11T00:06:04.111Z,9.90
2018-09-11T00:07:04.092Z,9.40
2018-09-11T00:08:04.073Z,9.80
2018-09-11T00:09:04.054Z,9.90
2018-09-11T00:10:04.036Z,10.30
2018-09-11T00:11:04.017Z,10.30
2018-09-11T00:12:04.001Z,10.90
2018-09-11T00:13:03.982Z,10.80
2018-09-11T00:14:03.961Z,11.00
2018-09-11T00:15:03.943Z,10.80
2018-09-11T00:16:03.928Z,10.00
2018-09-11T00:17:03.905Z,10.50
2018-09-11T00:18:03.886Z,10.20
2018-09-11T00:19:03.867Z,10.20
2018-09-11T00:20:03.848Z,10.00
2018-09-11T00:21:03.829Z,10.40
2018-09-11T00:22:03.814Z,9.60
2018-09-11T00:23:03.795Z,9.60
2018-09-11T00:24:03.772Z,9.80
2018-09-11T00:25:04.506Z,9.30
2018-09-11T00:26:03.736Z,9.40
2018-09-11T00:27:03.717Z,9.40
2018-09-11T00:28:03.698Z,9.40
2018-09-11T00:29:03.680Z,8.90
2018-09-11T00:30:03.660Z,9.20
2018-09-11T00:31:03.641Z,8.60
2018-09-11T00:32:03.622Z,9.00
2018-09-11T00:33:03.606Z,8.90
2018-09-11T00:34:03.586Z,9.70
2018-09-11T00:35:03.567Z,9.10
2018-09-11T00:36:03.547Z,8.20
2018-09-11T00:37:03.527Z,9.40
2018-09-11T00:38:03.509Z,8.60
2018-09-11T00:39:03.489Z,8.70
2018-09-11T00:40:03.471Z,8.60
2018-09-11T00:41:03.452Z,9.30
2018-09-11T00:42:03.433Z,9.50
2018-09-11T00:43:03.414Z,9.10
2018-09-11T00:44:03.394Z,9.10
2018-09-11T00:45:03.376Z,9.50
2018-09-11T00:46:03.356Z,8.90
2018-09-11T00:47:03.340Z,8.80
2018-09-11T00:48:03.322Z,9.00
2018-09-11T00:49:03.304Z,9.00
2018-09-11T00:50:03.280Z,9.20
2018-09-11T00:51:04.012Z,9.00
2018-09-11T00:52:03.241Z,8.70
2018-09-11T00:53:03.222Z,8.50
2018-09-11T00:54:03.203Z,8.60
2018-09-11T00:55:03.194Z,9.00
2018-09-11T00:56:03.167Z,9.30
2018-09-11T00:57:03.146Z,8.80
2018-09-11T00:58:03.125Z,8.50
2018-09-11T00:59:03.109Z,9.40
2018-09-11T01:00:03.094Z,8.90
2018-09-11T01:01:03.068Z,9.20
2018-09-11T01:02:03.051Z,9.30
2018-09-11T01:03:03.031Z,9.10
2018-09-11T01:04:03.010Z,9.20
2018-09-11T01:05:02.991Z,9.00
2018-09-11T01:06:02.972Z,8.90
2018-09-11T01:07:02.952Z,9.00
2018-09-11T01:08:02.932Z,8.80
2018-09-11T01:09:02.913Z,8.90
2018-09-11T01:10:02.915Z,8.40
2018-09-11T01:11:02.874Z,9.00
2018-09-11T01:12:02.854Z,9.00
2018-09-11T01:13:02.835Z,8.20
2018-09-11T01:14:02.816Z,8.30
2018-09-11T01:15:02.799Z,8.20
2018-09-11T01:16:02.777Z,8.90
2018-09-11T01:17:02.757Z,8.40
2018-09-11T01:18:03.491Z,8.10
2018-09-11T01:19:02.720Z,8.40
2018-09-11T01:20:02.699Z,8.90
2018-09-11T01:21:02.680Z,8.60
2018-09-11T01:22:02.661Z,8.80
2018-09-11T01:23:02.642Z,8.90
2018-09-11T01:24:02.621Z,9.40
2018-09-11T01:25:02.603Z,9.60
2018-09-11T01:26:02.584Z,9.00
2018-09-11T01:27:02.564Z,9.20
2018-09-11T01:28:02.548Z,9.70
2018-09-11T01:29:02.526Z,10.10
2018-09-11T01:30:02.506Z,8.80
2018-09-11T01:31:02.487Z,9.40
2018-09-11T01:32:02.470Z,10.00
2018-09-11T01:33:02.448Z,9.00
2018-09-11T01:34:02.428Z,9.50
2018-09-11T01:35:02.410Z,9.80
2018-09-11T01:36:02.405Z,9.50
2018-09-11T01:37:02.370Z,9.80
2018-09-11T01:38:02.351Z,9.10
2018-09-11T01:39:03.082Z,9.70
2018-09-11T01:40:02.311Z,9.50
2018-09-11T01:41:02.293Z,9.60
2018-09-11T01:42:02.272Z,9.20
2018-09-11T01:43:02.260Z,9.20
2018-09-11T01:44:02.234Z,9.50
2018-09-11T01:45:02.214Z,9.50
2018-09-11T01:46:02.197Z,9.90
2018-09-11T01:47:02.175Z,9.40
2018-09-11T01:48:02.155Z,9.50
2018-09-11T01:49:02.136Z,9.60
2018-09-11T01:50:02.118Z,9.60
2018-09-11T01:51:02.098Z,10.10
2018-09-11T01:52:02.078Z,9.80
2018-09-11T01:53:02.062Z,9.80
2018-09-11T01:54:02.039Z,9.70
2018-09-11T01:55:02.771Z,9.70
2018-09-11T01:56:01.998Z,10.00
2018-09-11T01:57:01.979Z,9.30
2018-09-11T01:58:01.964Z,9.50
2018-09-11T01:59:01.940Z,9.50
2018-09-11T02:00:01.920Z,9.40
2018-09-11T02:01:01.900Z,9.60
2018-09-11T02:02:01.882Z,8.80
2018-09-11T02:03:01.862Z,9.50
2018-09-11T02:04:01.842Z,9.90
2018-09-11T02:05:01.823Z,9.70
2018-09-11T02:06:01.804Z,9.90
2018-09-11T02:07:01.784Z,9.40
2018-09-11T02:08:01.763Z,10.60
2018-09-11T02:09:01.744Z,9.70
2018-09-11T02:10:01.729Z,9.70
2018-09-11T02:11:01.710Z,9.10
2018-09-11T02:12:01.685Z,9.30
2018-09-11T02:13:01.666Z,9.80
2018-09-11T02:14:01.647Z,10.60
2018-09-11T02:15:01.656Z,9.90
2018-09-11T02:16:01.609Z,9.80
2018-09-11T02:17:01.588Z,9.90
2018-09-11T02:18:01.567Z,10.20
2018-09-11T02:19:01.548Z,10.40
2018-09-11T02:20:01.527Z,10.00
2018-09-11T02:21:01.509Z,9.90
2018-09-11T02:22:01.489Z,10.20
2018-09-11T02:23:01.472Z,9.70
2018-09-11T02:24:01.449Z,9.60
2018-09-11T02:25:01.429Z,9.90
2018-09-11T02:26:01.410Z,9.50
2018-09-11T02:27:01.391Z,10.00
2018-09-11T02:28:01.370Z,10.50
2018-09-11T02:29:01.351Z,10.60
2018-09-11T02:30:01.337Z,10.20
2018-09-11T02:31:01.329Z,10.50
2018-09-11T02:32:01.295Z,11.20
2018-09-11T02:33:01.275Z,10.60
2018-09-11T02:34:01.253Z,11.00
2018-09-11T02:35:01.232Z,10.30
2018-09-11T02:36:01.962Z,10.00
2018-09-11T02:37:01.199Z,10.60
2018-09-11T02:38:01.172Z,10.70
2018-09-11T02:39:01.153Z,10.50
2018-09-11T02:40:01.132Z,10.10
2018-09-11T02:41:01.112Z,10.50
2018-09-11T02:42:01.092Z,9.20
2018-09-11T02:43:01.072Z,9.70
2018-09-11T02:44:01.051Z,10.10
2018-09-11T02:45:01.039Z,10.60
2018-09-11T02:46:01.012Z,10.10
2018-09-11T02:47:00.992Z,10.50
2018-09-11T02:48:00.973Z,10.60
2018-09-11T02:49:00.953Z,10.10
2018-09-11T02:50:00.933Z,10.90
2018-09-11T02:51:00.913Z,10.40
2018-09-11T02:52:00.892Z,9.70
2018-09-11T02:53:00.873Z,10.60
2018-09-11T02:54:00.856Z,10.40
2018-09-11T02:55:00.834Z,10.60
2018-09-11T02:56:00.823Z,10.50
2018-09-11T02:57:00.792Z,11.40
2018-09-11T02:58:00.773Z,10.80
2018-09-11T02:59:00.753Z,11.20
2018-09-11T03:00:00.732Z,11.20
2018-09-11T03:01:00.712Z,10.80
2018-09-11T03:02:00.694Z,10.80
2018-09-11T03:03:00.673Z,10.50
2018-09-11T03:04:00.653Z,10.80
2018-09-11T03:05:00.635Z,10.90
2018-09-11T03:06:00.612Z,10.60
2018-09-11T03:07:02.094Z,11.20
2018-09-11T03:08:00.573Z,11.10
2018-09-11T03:09:00.552Z,11.40
2018-09-11T03:10:00.532Z,10.00
2018-09-11T03:11:00.512Z,10.00
2018-09-11T03:12:00.493Z,10.50
2018-09-11T03:13:00.472Z,10.40
2018-09-11T03:14:00.452Z,11.30
2018-09-11T03:15:00.433Z,11.00
2018-09-11T03:16:00.416Z,10.60
2018-09-11T03:17:00.393Z,10.90
2018-09-11T03:18:00.372Z,11.20
2018-09-11T03:19:00.446Z,11.60
2018-09-11T03:20:00.332Z,10.80
2018-09-11T03:21:00.312Z,11.20
2018-09-11T03:22:00.293Z,11.90
2018-09-11T03:23:00.277Z,11.10
2018-09-11T03:24:00.252Z,11.50
2018-09-11T03:25:00.232Z,10.70
2018-09-11T03:26:00.211Z,11.80
2018-09-11T03:27:00.191Z,11.20
2018-09-11T03:28:00.182Z,11.50
2018-09-11T03:29:00.151Z,11.20
2018-09-11T03:30:00.134Z,11.20
2018-09-11T03:31:00.126Z,10.90
2018-09-11T03:32:00.091Z,11.80
2018-09-11T03:33:00.075Z,10.90
2018-09-11T03:34:00.051Z,11.40
2018-09-11T03:35:00.032Z,11.20
2018-09-11T03:36:00.011Z,10.90
2018-09-11T03:36:59.991Z,12.10
2018-09-11T03:37:59.982Z,11.30
2018-09-11T03:38:59.951Z,11.80
2018-09-11T03:40:00.681Z,10.90
2018-09-11T03:40:59.910Z,11.80
2018-09-11T03:41:59.891Z,11.30
2018-09-11T03:42:59.873Z,11.60
2018-09-11T03:43:59.864Z,11.80
2018-09-11T03:44:59.829Z,11.30
2018-09-11T03:45:59.813Z,12.30
2018-09-11T03:46:59.790Z,11.80
2018-09-11T03:47:59.769Z,11.30
2018-09-11T03:48:59.752Z,11.70
2018-09-11T03:49:59.729Z,11.90
2018-09-11T03:50:59.712Z,11.10
2018-09-11T03:51:59.702Z,11.50
2018-09-11T03:52:59.672Z,11.30
2018-09-11T03:53:59.650Z,10.80
2018-09-11T03:54:59.628Z,10.80
2018-09-11T03:55:59.610Z,11.20
2018-09-11T03:56:59.588Z,11.80
2018-09-11T03:57:59.575Z,10.90
2018-09-11T03:58:59.549Z,11.60
2018-09-11T03:59:59.528Z,11.30
2018-09-11T04:00:59.508Z,11.10
2018-09-11T04:01:59.489Z,11.60
2018-09-11T04:02:59.469Z,11.00
2018-09-11T04:03:59.449Z,10.10
2018-09-11T04:04:59.429Z,10.60
2018-09-11T04:06:00.158Z,9.80
2018-09-11T04:06:59.389Z,10.50
2018-09-11T04:07:59.367Z,10.20
2018-09-11T04:08:59.347Z,10.10
2018-09-11T04:09:59.329Z,10.40
2018-09-11T04:10:59.306Z,11.10
2018-09-11T04:11:59.290Z,10.60
2018-09-11T04:12:59.267Z,10.70
2018-09-11T04:13:59.247Z,11.10
2018-09-11T04:14:59.226Z,11.00
2018-09-11T04:15:59.205Z,10.70
2018-09-11T04:17:00.688Z,10.80
2018-09-11T04:17:59.166Z,10.40
2018-09-11T04:18:59.146Z,10.70
2018-09-11T04:19:59.125Z,10.30
2018-09-11T04:20:59.104Z,10.50
2018-09-11T04:21:59.084Z,11.20
2018-09-11T04:22:59.064Z,11.30
2018-09-11T04:23:59.044Z,10.60
2018-09-11T04:24:59.022Z,10.50
2018-09-11T04:25:59.004Z,10.60
2018-09-11T04:26:58.983Z,11.00
2018-09-11T04:27:58.962Z,10.70
2018-09-11T04:28:58.941Z,10.90
2018-09-11T04:29:58.922Z,11.50
2018-09-11T04:30:58.902Z,11.00
2018-09-11T04:31:58.881Z,11.90
2018-09-11T04:32:58.863Z,10.70
2018-09-11T04:33:58.842Z,11.60
2018-09-11T04:34:58.821Z,11.70
2018-09-11T04:35:58.801Z,11.30
2018-09-11T04:36:58.783Z,11.50
2018-09-11T04:37:58.760Z,11.20
2018-09-11T04:38:58.740Z,12.40
2018-09-11T04:39:58.721Z,12.70
2018-09-11T04:40:58.699Z,12.50
2018-09-11T04:41:58.678Z,11.60
2018-09-11T04:42:58.703Z,11.30
2018-09-11T04:43:58.641Z,11.10
2018-09-11T04:44:58.618Z,10.70
2018-09-11T04:45:58.597Z,10.80
2018-09-11T04:46:58.578Z,11.00
2018-09-11T04:47:58.556Z,10.60
2018-09-11T04:48:58.539Z,10.00
2018-09-11T04:49:58.516Z,11.20
2018-09-11T04:50:58.496Z,11.00
2018-09-11T04:51:58.475Z,11.30
2018-09-11T04:52:58.455Z,10.90
2018-09-11T04:53:58.437Z,11.20
2018-09-11T04:54:58.415Z,11.30
2018-09-11T04:55:58.475Z,10.30
2018-09-11T04:56:58.377Z,11.20
2018-09-11T04:57:58.355Z,11.90
2018-09-11T04:58:58.333Z,10.90
2018-09-11T04:59:58.313Z,11.10
2018-09-11T05:00:58.293Z,10.90
2018-09-11T05:01:58.283Z,10.90
2018-09-11T05:02:58.252Z,11.30
2018-09-11T05:03:58.232Z,11.00
2018-09-11T05:04:58.963Z,10.70
2018-09-11T05:05:58.192Z,11.30
2018-09-11T05:06:58.175Z,11.50
2018-09-11T05:07:58.152Z,12.30
2018-09-11T05:08:58.132Z,12.60
2018-09-11T05:09:58.110Z,12.90
2018-09-11T05:10:58.090Z,12.80
2018-09-11T05:11:58.070Z,12.10
2018-09-11T05:12:58.050Z,12.10
2018-09-11T05:13:58.030Z,12.30
2018-09-11T05:14:58.010Z,12.10
2018-09-11T05:15:57.991Z,12.00
2018-09-11T05:16:57.968Z,11.80
2018-09-11T05:17:57.950Z,11.50
2018-09-11T05:18:57.976Z,10.90
2018-09-11T05:19:57.910Z,11.20
2018-09-11T05:20:57.888Z,11.20
2018-09-11T05:21:57.868Z,11.20
2018-09-11T05:22:57.848Z,11.80
2018-09-11T05:23:57.826Z,11.40
2018-09-11T05:24:57.807Z,11.60
2018-09-11T05:25:57.789Z,11.20
2018-09-11T05:26:57.773Z,10.40
2018-09-11T05:27:57.755Z,10.50
2018-09-11T05:28:57.727Z,11.50
2018-09-11T05:29:57.707Z,11.50
2018-09-11T05:30:57.687Z,10.80
2018-09-11T05:31:57.666Z,10.90
2018-09-11T05:32:57.651Z,10.80
2018-09-11T05:33:57.625Z,11.30
2018-09-11T05:34:57.606Z,11.70
2018-09-11T05:35:57.585Z,11.40
2018-09-11T05:36:58.313Z,10.90
2018-09-11T05:37:57.544Z,11.50
2018-09-11T05:38:57.540Z,11.40
2018-09-11T05:39:57.503Z,11.30
2018-09-11T05:40:57.483Z,11.20
2018-09-11T05:41:57.464Z,10.90
2018-09-11T05:42:57.443Z,10.90
2018-09-11T05:43:57.424Z,10.80
2018-09-11T05:44:57.404Z,11.10
2018-09-11T05:45:57.382Z,10.70
2018-09-11T05:46:57.366Z,10.80
2018-09-11T05:47:57.340Z,11.10
2018-09-11T05:48:57.321Z,11.50
2018-09-11T05:49:57.301Z,10.90
2018-09-11T05:50:57.281Z,10.50
2018-09-11T05:51:57.262Z,11.90
2018-09-11T05:52:57.241Z,11.40
2018-09-11T05:53:57.220Z,11.20
2018-09-11T05:54:57.201Z,11.30
2018-09-11T05:55:57.180Z,11.80
2018-09-11T05:56:57.160Z,11.30
2018-09-11T05:57:57.141Z,12.20
2018-09-11T05:58:57.120Z,11.90
2018-09-11T05:59:57.102Z,12.30
2018-09-11T06:00:57.081Z,12.50
2018-09-11T06:01:57.065Z,11.40
2018-09-11T06:02:57.041Z,11.50
2018-09-11T06:03:57.024Z,12.80
2018-09-11T06:04:57.000Z,11.60
2018-09-11T06:05:56.982Z,12.20
2018-09-11T06:06:56.961Z,12.30
2018-09-11T06:07:57.692Z,12.30
2018-09-11T06:08:56.921Z,12.30
2018-09-11T06:09:56.902Z,12.60
2018-09-11T06:10:56.883Z,11.60
2018-09-11T06:11:56.863Z,11.80
2018-09-11T06:12:56.847Z,11.90
2018-09-11T06:13:56.822Z,12.50
2018-09-11T06:14:56.803Z,12.30
2018-09-11T06:15:56.782Z,11.80
2018-09-11T06:16:56.762Z,11.90
2018-09-11T06:17:56.743Z,12.10
2018-09-11T06:18:56.724Z,12.80
2018-09-11T06:19:56.704Z,12.00
2018-09-11T06:20:56.683Z,11.90
2018-09-11T06:21:56.663Z,12.20
2018-09-11T06:22:56.647Z,12.50
2018-09-11T06:23:56.625Z,12.50
2018-09-11T06:24:56.608Z,12.40
2018-09-11T06:25:56.641Z,12.50
2018-09-11T06:26:56.566Z,12.60
2018-09-11T06:27:56.696Z,12.90
2018-09-11T06:28:56.529Z,12.90
2018-09-11T06:29:56.508Z,13.10
2018-09-11T06:30:56.496Z,12.80
2018-09-11T06:31:56.471Z,13.30
2018-09-11T06:32:56.448Z,12.30
2018-09-11T06:34:00.182Z,12.70
2018-09-11T06:34:56.410Z,12.70
2018-09-11T06:35:56.398Z,13.10
2018-09-11T06:36:56.428Z,12.50
2018-09-11T06:37:56.352Z,13.60
2018-09-11T06:38:56.332Z,13.30
2018-09-11T06:39:57.063Z,12.90
2018-09-11T06:40:56.293Z,13.70
2018-09-11T06:41:56.274Z,12.50
2018-09-11T06:42:56.255Z,12.80
2018-09-11T06:43:56.235Z,14.30
2018-09-11T06:44:56.216Z,13.30
2018-09-11T06:45:56.197Z,13.60
2018-09-11T06:46:56.191Z,13.20
2018-09-11T06:47:56.159Z,13.50
2018-09-11T06:48:56.140Z,13.30
2018-09-11T06:49:56.121Z,13.60
2018-09-11T06:50:56.102Z,12.90
2018-09-11T06:51:56.082Z,14.10
2018-09-11T06:52:56.063Z,13.50
2018-09-11T06:53:56.044Z,12.80
2018-09-11T06:54:56.026Z,14.50
2018-09-11T06:55:56.007Z,13.90
2018-09-11T06:56:55.988Z,14.70
2018-09-11T06:57:55.968Z,13.60
2018-09-11T06:58:55.995Z,13.70
2018-09-11T06:59:55.931Z,14.20
2018-09-11T07:00:55.911Z,13.10
2018-09-11T07:01:55.970Z,13.00
2018-09-11T07:02:55.873Z,13.20
2018-09-11T07:03:55.854Z,13.30
2018-09-11T07:04:55.835Z,13.80
2018-09-11T07:05:55.817Z,13.10
2018-09-11T07:06:55.797Z,13.90
2018-09-11T07:07:55.783Z,13.40
2018-09-11T07:08:55.760Z,13.30
2018-09-11T07:09:55.741Z,13.20
2018-09-11T07:10:55.722Z,13.10
2018-09-11T07:11:58.706Z,13.60
2018-09-11T07:12:55.684Z,13.60
2018-09-11T07:13:55.666Z,12.80
2018-09-11T07:14:55.648Z,13.20
2018-09-11T07:15:55.631Z,13.30
2018-09-11T07:16:55.610Z,13.80
2018-09-11T07:17:55.592Z,12.90
2018-09-11T07:18:55.573Z,14.50
2018-09-11T07:19:55.746Z,13.80
2018-09-11T07:20:55.535Z,13.60
2018-09-11T07:21:55.517Z,13.80
2018-09-11T07:22:55.500Z,13.00
2018-09-11T07:23:55.480Z,13.20
2018-09-11T07:24:55.461Z,12.60
2018-09-11T07:25:55.463Z,12.60
2018-09-11T07:26:55.425Z,13.70
2018-09-11T07:27:55.407Z,12.90
2018-09-11T07:28:55.391Z,12.90
2018-09-11T07:29:55.374Z,13.00
2018-09-11T07:30:55.352Z,12.10
2018-09-11T07:31:55.332Z,12.40
2018-09-11T07:32:55.314Z,12.10
2018-09-11T07:33:56.047Z,12.70
2018-09-11T07:34:55.279Z,13.10
2018-09-11T07:35:55.261Z,13.20
2018-09-11T07:36:55.241Z,13.00
2018-09-11T07:37:55.321Z,13.60
2018-09-11T07:38:55.205Z,14.10
2018-09-11T07:39:55.188Z,14.30
2018-09-11T07:40:55.169Z,14.40
2018-09-11T07:41:55.151Z,13.30
2018-09-11T07:42:55.133Z,12.80
2018-09-11T07:43:57.466Z,13.10
2018-09-11T07:44:55.095Z,14.00
2018-09-11T07:45:55.077Z,14.00
2018-09-11T07:46:55.061Z,13.30
2018-09-11T07:47:55.041Z,13.70
2018-09-11T07:48:55.025Z,14.70
2018-09-11T07:49:56.506Z,13.30
2018-09-11T07:50:54.988Z,13.40
2018-09-11T07:51:54.971Z,14.20
2018-09-11T07:52:54.971Z,13.60
2018-09-11T07:53:54.935Z,13.60
2018-09-11T07:54:54.917Z,13.20
2018-09-11T07:55:54.997Z,13.40
2018-09-11T07:56:54.878Z,12.90
2018-09-11T07:57:54.917Z,14.00
2018-09-11T07:58:54.843Z,13.50
2018-09-11T07:59:54.826Z,13.50
2018-09-11T08:00:54.807Z,14.00
2018-09-11T08:01:54.794Z,12.50
2018-09-11T08:02:54.785Z,13.00
2018-09-11T08:03:54.753Z,13.30
2018-09-11T08:04:54.737Z,13.70
2018-09-11T08:05:54.719Z,12.00
2018-09-11T08:06:54.702Z,12.20
2018-09-11T08:07:54.683Z,11.70
2018-09-11T08:08:54.665Z,11.60
2018-09-11T08:09:54.648Z,10.30
2018-09-11T08:10:54.630Z,9.20
2018-09-11T08:11:55.427Z,9.50
2018-09-11T08:12:54.599Z,9.80
2018-09-11T08:13:54.576Z,10.90
2018-09-11T08:14:54.559Z,10.50
2018-09-11T08:15:54.541Z,11.20
2018-09-11T08:16:54.525Z,10.10
2018-09-11T08:17:54.541Z,10.00
2018-09-11T08:18:54.494Z,9.70
2018-09-11T08:19:54.539Z,10.00
2018-09-11T08:20:54.458Z,10.00
2018-09-11T08:21:54.438Z,9.80
2018-09-11T08:22:54.424Z,9.40
2018-09-11T08:23:54.443Z,8.90
2018-09-11T08:24:54.384Z,9.00
2018-09-11T08:25:54.367Z,9.10
2018-09-11T08:26:54.350Z,8.90
2018-09-11T08:27:54.333Z,9.00
2018-09-11T08:28:54.315Z,8.40
2018-09-11T08:29:54.304Z,8.40
2018-09-11T08:30:54.286Z,8.50
2018-09-11T08:31:54.263Z,8.40
2018-09-11T08:32:54.245Z,7.90
2018-09-11T08:33:54.228Z,7.60
2018-09-11T08:34:54.212Z,7.50
2018-09-11T08:35:54.193Z,8.20
2018-09-11T08:36:54.180Z,8.20
2018-09-11T08:37:54.159Z,9.00
2018-09-11T08:38:54.893Z,9.20
2018-09-11T08:39:54.126Z,9.50
2018-09-11T08:40:54.133Z,9.50
2018-09-11T08:41:54.091Z,9.30
2018-09-11T08:42:54.073Z,9.40
2018-09-11T08:43:54.057Z,8.40
2018-09-11T08:44:54.038Z,8.40
2018-09-11T08:45:54.023Z,9.10
2018-09-11T08:46:54.006Z,9.80
2018-09-11T08:47:53.988Z,9.40
2018-09-11T08:48:53.971Z,8.60
2018-09-11T08:49:56.958Z,8.30
2018-09-11T08:50:53.937Z,8.50
2018-09-11T08:51:53.920Z,8.90
2018-09-11T08:52:53.902Z,9.70
2018-09-11T08:53:53.885Z,9.10
2018-09-11T08:54:53.870Z,8.90
2018-09-11T08:55:54.606Z,8.30
2018-09-11T08:56:53.834Z,9.30
2018-09-11T08:57:53.818Z,9.70
2018-09-11T08:58:53.802Z,9.50
2018-09-11T08:59:53.784Z,10.00
2018-09-11T09:00:53.768Z,9.50
2018-09-11T09:01:53.751Z,8.40
2018-09-11T09:02:53.734Z,9.10
2018-09-11T09:03:53.718Z,8.50
2018-09-11T09:04:53.701Z,9.00
2018-09-11T09:05:53.685Z,8.60
2018-09-11T09:06:53.720Z,8.90
2018-09-11T09:07:53.650Z,9.80
2018-09-11T09:08:53.634Z,9.70
2018-09-11T09:09:53.622Z,9.20
2018-09-11T09:10:53.601Z,9.80
2018-09-11T09:11:54.334Z,9.50
2018-09-11T09:12:53.571Z,9.30
2018-09-11T09:13:53.551Z,9.30
2018-09-11T09:14:53.537Z,9.50
2018-09-11T09:15:53.519Z,9.60
2018-09-11T09:16:53.501Z,9.10
2018-09-11T09:17:53.485Z,9.00
2018-09-11T09:18:53.472Z,9.10
2018-09-11T09:19:53.453Z,9.30
2018-09-11T09:20:53.514Z,9.10
2018-09-11T09:21:53.432Z,9.00
2018-09-11T09:22:53.404Z,8.40
2018-09-11T09:23:53.385Z,9.10
2018-09-11T09:24:53.370Z,8.80
2018-09-11T09:25:53.353Z,8.70
2018-09-11T09:26:53.340Z,8.60
2018-09-11T09:27:53.320Z,9.20
2018-09-11T09:28:53.304Z,8.70
2018-09-11T09:29:53.289Z,8.30
2018-09-11T09:30:53.273Z,7.70
2018-09-11T09:31:53.255Z,8.10
2018-09-11T09:32:53.239Z,7.60
2018-09-11T09:33:53.225Z,8.20
2018-09-11T09:34:53.206Z,8.40
2018-09-11T09:35:53.189Z,8.10
2018-09-11T09:36:53.203Z,8.10
2018-09-11T09:37:53.158Z,8.00
2018-09-11T09:38:53.143Z,7.60
2018-09-11T09:39:53.126Z,7.40
2018-09-11T09:40:53.110Z,7.40
2018-09-11T09:41:53.097Z,6.80
2018-09-11T09:42:53.078Z,6.70
2018-09-11T09:43:53.869Z,7.00
2018-09-11T09:44:53.043Z,6.50
2018-09-11T09:45:53.029Z,7.00
2018-09-11T09:46:53.014Z,7.20
2018-09-11T09:47:52.995Z,7.70
2018-09-11T09:48:52.979Z,7.10
2018-09-11T09:49:52.963Z,5.90
2018-09-11T09:50:52.979Z,5.60
2018-09-11T09:51:52.930Z,6.40
2018-09-11T09:52:52.917Z,6.00
2018-09-11T09:53:52.907Z,6.20
2018-09-11T09:54:52.883Z,5.70
2018-09-11T09:55:52.866Z,5.80
2018-09-11T09:56:52.852Z,5.80
2018-09-11T09:57:52.839Z,5.60
2018-09-11T09:58:52.819Z,5.90
2018-09-11T09:59:52.803Z,5.90
2018-09-11T10:00:52.786Z,5.60
2018-09-11T10:01:52.772Z,5.60
2018-09-11T10:02:52.756Z,5.40
2018-09-11T10:03:52.738Z,5.50
2018-09-11T10:04:52.771Z,5.30
2018-09-11T10:05:52.706Z,5.50
2018-09-11T10:06:52.691Z,5.60
2018-09-11T10:07:52.674Z,6.00
2018-09-11T10:08:52.658Z,5.40
2018-09-11T10:09:52.644Z,5.60
2018-09-11T10:10:52.627Z,5.20
2018-09-11T10:11:52.742Z,5.70
2018-09-11T10:12:52.595Z,5.50
2018-09-11T10:13:52.587Z,5.10
2018-09-11T10:14:52.563Z,5.40
2018-09-11T10:15:54.050Z,5.00
2018-09-11T10:16:52.531Z,5.40
2018-09-11T10:17:52.516Z,5.50
2018-09-11T10:18:52.501Z,5.30
2018-09-11T10:19:52.484Z,5.70
2018-09-11T10:20:52.472Z,5.60
2018-09-11T10:21:53.954Z,5.60
2018-09-11T10:22:52.436Z,5.80
2018-09-11T10:23:52.421Z,5.10
2018-09-11T10:24:52.408Z,5.40
2018-09-11T10:25:52.390Z,5.40
2018-09-11T10:26:52.373Z,5.50
2018-09-11T10:27:54.612Z,5.10
2018-09-11T10:28:52.342Z,5.80
2018-09-11T10:29:52.326Z,4.90
2018-09-11T10:30:52.312Z,5.10
2018-09-11T10:31:52.294Z,5.10
2018-09-11T10:32:52.281Z,5.60
2018-09-11T10:33:52.400Z,5.20
2018-09-11T10:34:52.248Z,5.30
2018-09-11T10:35:52.232Z,5.40
2018-09-11T10:36:52.218Z,5.50
2018-09-11T10:37:52.204Z,5.30
2018-09-11T10:38:52.189Z,5.00
2018-09-11T10:39:52.169Z,5.30
2018-09-11T10:40:52.154Z,5.30
2018-09-11T10:41:52.139Z,5.70
2018-09-11T10:42:52.125Z,5.30
2018-09-11T10:43:52.107Z,4.90
2018-09-11T10:44:52.165Z,5.70
2018-09-11T10:45:52.078Z,5.90
2018-09-11T10:46:52.062Z,4.80
2018-09-11T10:47:52.045Z,5.40
2018-09-11T10:48:52.051Z,5.10
2018-09-11T10:49:52.018Z,5.20
2018-09-11T10:50:51.999Z,5.30
2018-09-11T10:51:52.010Z,4.90
2018-09-11T10:52:51.970Z,5.20
2018-09-11T10:53:51.954Z,5.10
2018-09-11T10:54:51.944Z,5.40
2018-09-11T10:55:51.922Z,5.10
2018-09-11T10:56:51.915Z,5.40
2018-09-11T10:57:51.892Z,5.40
2018-09-11T10:58:51.876Z,5.10
2018-09-11T10:59:51.861Z,5.40
2018-09-11T11:00:51.846Z,5.30
2018-09-11T11:01:51.831Z,5.20
2018-09-11T11:02:51.816Z,5.30
2018-09-11T11:03:51.802Z,5.30
2018-09-11T11:04:51.785Z,5.50
2018-09-11T11:05:51.771Z,5.20
2018-09-11T11:06:51.755Z,4.90
2018-09-11T11:07:51.740Z,5.10
2018-09-11T11:08:51.724Z,5.40
2018-09-11T11:09:51.709Z,5.00
2018-09-11T11:10:51.695Z,4.90
2018-09-11T11:11:51.682Z,5.20
2018-09-11T11:12:51.667Z,4.80
2018-09-11T11:13:51.655Z,4.60
2018-09-11T11:14:51.633Z,4.70
2018-09-11T11:15:51.617Z,5.10
2018-09-11T11:16:51.665Z,5.30
2018-09-11T11:17:51.589Z,4.70
2018-09-11T11:18:51.573Z,4.70
2018-09-11T11:19:51.557Z,4.40
2018-09-11T11:20:51.544Z,4.80
2018-09-11T11:21:51.528Z,4.50
2018-09-11T11:22:51.513Z,5.30
2018-09-11T11:23:51.497Z,4.90
2018-09-11T11:24:51.482Z,4.80
2018-09-11T11:25:51.469Z,4.90
2018-09-11T11:26:51.516Z,4.80
2018-09-11T11:27:51.437Z,4.60
2018-09-11T11:28:51.422Z,4.80
2018-09-11T11:29:51.408Z,4.40
2018-09-11T11:30:51.399Z,5.50
2018-09-11T11:31:51.377Z,4.70
2018-09-11T11:32:51.363Z,5.10
2018-09-11T11:33:51.350Z,4.90
2018-09-11T11:34:51.334Z,5.30
2018-09-11T11:35:51.319Z,4.70
2018-09-11T11:36:51.468Z,4.80
2018-09-11T11:37:51.290Z,5.60
2018-09-11T11:38:51.274Z,5.10
2018-09-11T11:39:51.259Z,5.20
2018-09-11T11:40:51.244Z,5.00
2018-09-11T11:41:51.349Z,4.90
2018-09-11T11:42:51.270Z,5.40
2018-09-11T11:43:51.200Z,4.80
2018-09-11T11:44:51.187Z,4.90
2018-09-11T11:45:51.172Z,5.10
2018-09-11T11:46:51.172Z,5.00
2018-09-11T11:47:51.142Z,4.70
2018-09-11T11:48:51.128Z,5.10
2018-09-11T11:49:51.116Z,5.10
2018-09-11T11:50:51.099Z,5.20
2018-09-11T11:51:51.089Z,5.00
2018-09-11T11:52:51.069Z,4.80
2018-09-11T11:53:51.056Z,4.80
2018-09-11T11:54:51.049Z,5.10
2018-09-11T11:55:51.026Z,5.00
2018-09-11T11:56:51.011Z,4.90
2018-09-11T11:57:50.999Z,4.60
2018-09-11T11:58:50.982Z,5.00
2018-09-11T11:59:50.968Z,4.90
2018-09-11T12:00:50.954Z,5.00
2018-09-11T12:01:50.954Z,4.80
2018-09-11T12:02:50.927Z,4.40
2018-09-11T12:03:50.916Z,4.70
2018-09-11T12:04:50.897Z,4.40
2018-09-11T12:05:50.883Z,4.90
2018-09-11T12:06:50.869Z,5.20
2018-09-11T12:07:50.876Z,5.00
2018-09-11T12:08:50.839Z,4.50
2018-09-11T12:09:50.824Z,4.60
2018-09-11T12:10:50.811Z,4.90
2018-09-11T12:11:50.797Z,4.80
2018-09-11T12:12:50.782Z,4.30
2018-09-11T12:13:50.769Z,4.40
2018-09-11T12:14:50.755Z,4.60
2018-09-11T12:15:50.740Z,4.90
2018-09-11T12:16:50.775Z,4.40
2018-09-11T12:17:50.714Z,4.30
2018-09-11T12:18:50.698Z,4.70
2018-09-11T12:19:50.689Z,4.70
2018-09-11T12:20:50.670Z,4.60
2018-09-11T12:21:50.656Z,4.40
2018-09-11T12:22:50.643Z,4.40
2018-09-11T12:23:50.629Z,5.10
2018-09-11T12:24:50.615Z,4.70
2018-09-11T12:25:50.605Z,4.70
2018-09-11T12:26:50.708Z,4.30
2018-09-11T12:27:50.574Z,4.40
2018-09-11T12:28:50.561Z,4.40
2018-09-11T12:29:50.547Z,4.20
2018-09-11T12:30:50.533Z,4.40
2018-09-11T12:31:50.519Z,4.30
2018-09-11T12:32:50.505Z,4.30
2018-09-11T12:33:50.491Z,4.50
2018-09-11T12:34:50.478Z,4.30
2018-09-11T12:35:50.464Z,4.50
2018-09-11T12:36:50.451Z,4.40
2018-09-11T12:37:50.436Z,4.60
2018-09-11T12:38:50.426Z,4.10
2018-09-11T12:39:50.408Z,4.30
2018-09-11T12:40:50.397Z,4.40
2018-09-11T12:41:50.382Z,4.40
2018-09-11T12:42:50.369Z,4.10
2018-09-11T12:43:50.357Z,4.50
2018-09-11T12:44:50.342Z,4.60
2018-09-11T12:45:50.391Z,4.70
2018-09-11T12:46:50.408Z,4.50
2018-09-11T12:47:50.686Z,4.30
2018-09-11T12:48:50.424Z,4.80
2018-09-11T12:49:51.024Z,4.10
2018-09-11T12:50:50.259Z,4.20
2018-09-11T12:51:50.245Z,4.30
2018-09-11T12:52:50.234Z,4.00
2018-09-11T12:53:50.218Z,3.80
2018-09-11T12:54:50.207Z,3.90
2018-09-11T12:55:50.191Z,3.90
2018-09-11T12:56:50.178Z,4.00
2018-09-11T12:57:50.165Z,4.40
2018-09-11T12:58:50.152Z,3.90
2018-09-11T12:59:50.139Z,4.30
2018-09-11T13:00:50.125Z,4.50
2018-09-11T13:01:50.111Z,4.10
2018-09-11T13:02:50.106Z,4.40
2018-09-11T13:03:50.084Z,4.20
2018-09-11T13:04:50.074Z,4.60
2018-09-11T13:05:50.058Z,4.90